DURO2: Washita River Durwood, OK

Data processed at Sun Oct 15 2017 23:37


All information presented herein is the property of the government of the United States of America and may be revised or deleted at any time without prior notice.
Dissemination of this information without the expressed written consent of the Public Affairs Office, Tulsa District U.S. Army Corps of Engineers is strictly prohibited.
These data are gathered electronically and, as presented, have not undergone any form of quality control. These data are not guaranteed to be valid or correct.
Go to home page.
Go to station list.

Upstream stations:

Downstream station:
Previous Day
Next Day
Current Day
    
SHEF ID:       DURO2     Washita River near Dickson, OK
STATION TYPE:  

               PRECIP PRECIP(A)     STAGE  RIV-FLOW  BAT-LOAD
                   in        in        ft       cfs      volt
              Ccp-Rev   Ccp-Rev   Ccp-Rev   Ccp-Rev   Ccp-Rev
(US/Central)
10/13 00:00      0.00      ----      8.43      1377     11.53
10/13 01:00      0.00      ----      8.40      1362     11.53
10/13 02:00      0.00      ----      8.39      1356     11.53
10/13 03:00      0.00      ----      8.39      1356     11.53
10/13 04:00      0.00      ----      8.37      1346     11.53
10/13 05:00      0.00      ----      8.37      1346     11.53
10/13 06:00      0.00      ----      8.34      1331     11.53
10/13 07:00      0.00      ----      8.32      1321     11.53
10/13 08:00      0.00      ----      8.32      1321     11.53
10/13 09:00      0.00      ----      8.30      1310     11.53
10/13 10:00      0.00      ----      8.30      1310     11.53
10/13 11:00      0.00      ----      8.29      1305     11.53
10/13 12:00      0.00      ----      8.28      1300     11.53
10/13 13:00      0.00      ----      8.25      1285     11.61
10/13 14:00      0.00      ----      8.26      1290     11.61
10/13 15:00      0.00      ----      8.24      1280     11.61
10/13 16:00      0.00      ----      8.21      1265     11.61
10/13 17:00      0.00      ----      8.21      1265     11.61
10/13 18:00      0.00      ----      8.20      1260     11.61
10/13 19:00      0.00      ----      8.18      1250     11.61
10/13 20:00      0.00      ----      8.18      1250     11.61
10/13 21:00      0.00      ----      8.17      1245     11.61
10/13 22:00      0.00      ----      8.14      1230     11.53
10/13 23:00      0.00      ----      8.15      1235     11.53